createdAt,value
2023-05-14T00:00:17.724Z,28.9
2023-05-14T00:02:17.684Z,28.7
2023-05-14T00:04:17.759Z,28.6
2023-05-14T00:06:18.208Z,28.5
2023-05-14T00:08:18.215Z,28.5
2023-05-14T00:10:17.677Z,28.4
2023-05-14T00:12:17.764Z,28.3
2023-05-14T00:14:17.754Z,28.2
2023-05-14T00:16:18.829Z,28.1
2023-05-14T00:18:17.634Z,27.8
2023-05-14T00:20:17.639Z,27.5
2023-05-14T00:22:19.121Z,27.2
2023-05-14T00:24:23.220Z,27.1
2023-05-14T00:26:17.622Z,26.8
2023-05-14T00:28:18.813Z,26.7
2023-05-14T00:30:17.704Z,26.5
2023-05-14T00:32:17.753Z,26.3
2023-05-14T00:34:20.632Z,26.2
2023-05-14T00:36:17.800Z,25.9
2023-05-14T00:38:17.695Z,25.7
2023-05-14T00:40:17.603Z,25.5
2023-05-14T00:42:17.641Z,25.3
2023-05-14T00:44:18.602Z,25.2
2023-05-14T00:46:17.675Z,25
2023-05-14T00:48:17.699Z,24.9
2023-05-14T00:50:25.320Z,24.8
2023-05-14T00:52:17.552Z,24.6
2023-05-14T00:54:17.840Z,24.6
2023-05-14T00:56:17.554Z,24.5
2023-05-14T00:58:29.436Z,24.4
2023-05-14T01:00:17.708Z,24.3
2023-05-14T01:02:17.523Z,24.3
2023-05-14T01:04:17.648Z,24.4
2023-05-14T01:06:17.747Z,24.3
2023-05-14T01:08:17.661Z,24.2
2023-05-14T01:10:17.601Z,24.2
2023-05-14T01:12:23.210Z,24.1
2023-05-14T01:14:20.562Z,24.1
2023-05-14T01:16:17.665Z,24
2023-05-14T01:18:17.837Z,24
2023-05-14T01:20:17.645Z,24
2023-05-14T01:22:17.625Z,24
2023-05-14T01:24:17.554Z,23.9
2023-05-14T01:26:17.538Z,23.6
2023-05-14T01:28:17.505Z,23.6
2023-05-14T01:30:17.439Z,23.5
2023-05-14T01:32:17.739Z,23.4
2023-05-14T01:34:20.024Z,23.4
2023-05-14T01:36:17.498Z,23.4
2023-05-14T01:38:17.762Z,23.4
2023-05-14T01:38:54.918Z,23.4
2023-05-14T01:40:17.728Z,23.3
2023-05-14T01:42:17.686Z,23.4
2023-05-14T01:44:18.827Z,23.4
2023-05-14T01:46:22.176Z,23.3
2023-05-14T01:48:18.668Z,23.3
2023-05-14T01:50:17.591Z,23.2
2023-05-14T01:52:17.517Z,23.2
2023-05-14T01:54:17.473Z,23.3
2023-05-14T01:56:19.023Z,23.3
2023-05-14T01:58:17.416Z,23.3
2023-05-14T02:00:17.449Z,23.3
2023-05-14T02:02:17.483Z,23.2
2023-05-14T02:04:18.490Z,23.2
2023-05-14T02:06:17.499Z,23.2
2023-05-14T02:08:17.505Z,23.3
2023-05-14T02:10:17.754Z,23.2
2023-05-14T02:12:17.497Z,23.1
2023-05-14T02:14:18.796Z,23.1
2023-05-14T02:16:17.490Z,23
2023-05-14T02:18:17.491Z,23.1
2023-05-14T02:20:17.611Z,23
2023-05-14T02:22:17.598Z,23
2023-05-14T02:24:17.496Z,23
2023-05-14T02:26:17.541Z,22.9
2023-05-14T02:28:17.427Z,22.9
2023-05-14T02:30:19.119Z,22.9
2023-05-14T02:32:17.473Z,22.9
2023-05-14T02:34:17.593Z,23
2023-05-14T02:36:17.476Z,23
2023-05-14T02:38:17.552Z,22.9
2023-05-14T02:40:17.489Z,22.9
2023-05-14T02:42:17.422Z,22.9
2023-05-14T02:44:17.376Z,23
2023-05-14T02:46:17.511Z,23
2023-05-14T02:48:17.414Z,22.9
2023-05-14T02:50:17.480Z,22.9
2023-05-14T02:52:18.912Z,22.9
2023-05-14T02:54:19.117Z,22.9
2023-05-14T02:56:17.696Z,22.8
2023-05-14T02:58:17.592Z,22.8
2023-05-14T03:00:18.586Z,22.7
2023-05-14T03:02:17.507Z,22.7
2023-05-14T03:04:17.326Z,22.8
2023-05-14T03:06:17.413Z,22.7
2023-05-14T03:08:17.551Z,22.7
2023-05-14T03:10:17.328Z,22.7
2023-05-14T03:12:17.365Z,22.7
2023-05-14T03:14:17.393Z,22.8
2023-05-14T03:16:17.480Z,22.7
2023-05-14T03:18:17.458Z,22.8
2023-05-14T03:20:17.345Z,22.8
2023-05-14T03:22:17.465Z,22.7
2023-05-14T03:24:17.340Z,22.8
2023-05-14T03:26:17.335Z,22.8
2023-05-14T03:28:17.386Z,22.8
2023-05-14T03:30:17.291Z,22.8
2023-05-14T03:32:17.569Z,22.8
2023-05-14T03:34:17.453Z,22.8
2023-05-14T03:36:17.308Z,22.7
2023-05-14T03:38:17.276Z,22.7
2023-05-14T03:40:17.300Z,22.8
2023-05-14T03:42:17.306Z,22.8
2023-05-14T03:44:17.286Z,22.8
2023-05-14T03:46:17.305Z,22.8
2023-05-14T03:48:17.483Z,22.8
2023-05-14T03:50:18.875Z,22.8
2023-05-14T03:52:17.506Z,22.7
2023-05-14T03:54:17.433Z,22.8
2023-05-14T03:56:17.416Z,22.8
2023-05-14T03:58:17.571Z,22.8
2023-05-14T04:00:17.293Z,22.8
2023-05-14T04:02:21.552Z,22.8
2023-05-14T04:04:18.727Z,22.9
2023-05-14T04:06:21.479Z,22.9
2023-05-14T04:08:17.512Z,23
2023-05-14T04:10:17.372Z,23
2023-05-14T04:12:17.343Z,22.9
2023-05-14T04:14:17.609Z,22.8
2023-05-14T04:16:18.514Z,22.9
2023-05-14T04:18:17.333Z,23
2023-05-14T04:20:17.268Z,22.8
2023-05-14T04:22:17.376Z,22.8
2023-05-14T04:24:17.259Z,22.9
2023-05-14T04:26:17.244Z,22.8
2023-05-14T04:28:17.251Z,22.7
2023-05-14T04:30:17.262Z,22.8
2023-05-14T04:32:17.241Z,22.8
2023-05-14T04:34:18.744Z,22.7
2023-05-14T04:36:17.247Z,22.6
2023-05-14T04:38:17.420Z,22.6
2023-05-14T04:40:17.299Z,22.5
2023-05-14T04:42:17.240Z,22.6
2023-05-14T04:44:17.246Z,22.5
2023-05-14T04:46:17.255Z,22.5
2023-05-14T04:48:17.242Z,22.6
2023-05-14T04:50:17.229Z,22.6
2023-05-14T04:52:17.217Z,22.5
2023-05-14T04:54:17.372Z,22.5
2023-05-14T04:56:17.270Z,22.4
2023-05-14T04:58:17.205Z,22.4
2023-05-14T05:00:17.241Z,22.3
2023-05-14T05:02:17.304Z,22.3
2023-05-14T05:04:17.331Z,22.4
2023-05-14T05:06:17.256Z,22.4
2023-05-14T05:08:17.212Z,22.4
2023-05-14T05:10:18.393Z,22.3
2023-05-14T05:12:17.245Z,22.3
2023-05-14T05:14:17.364Z,22.4
2023-05-14T05:16:17.252Z,22.4
2023-05-14T05:18:18.277Z,22.3
2023-05-14T05:20:17.264Z,22.2
2023-05-14T05:22:18.766Z,22.2
2023-05-14T05:24:17.204Z,22.2
2023-05-14T05:26:17.247Z,22.3
2023-05-14T05:28:17.281Z,22.3
2023-05-14T05:30:18.175Z,22.3
2023-05-14T05:32:17.454Z,22.3
2023-05-14T05:34:17.209Z,22.3
2023-05-14T05:36:17.213Z,22.2
2023-05-14T05:38:17.231Z,22.2
2023-05-14T05:40:17.200Z,22.1
2023-05-14T05:42:17.302Z,22.2
2023-05-14T05:44:17.234Z,22.1
2023-05-14T05:46:17.163Z,22.1
2023-05-14T05:48:17.185Z,22.1
2023-05-14T05:50:18.426Z,22.1
2023-05-14T05:52:17.259Z,22.1
2023-05-14T05:54:17.162Z,22
2023-05-14T05:56:17.124Z,22.2
2023-05-14T05:58:17.208Z,22.1
2023-05-14T06:00:17.145Z,22.1
2023-05-14T06:02:17.178Z,22
2023-05-14T06:04:17.128Z,22.1
2023-05-14T06:06:17.132Z,22.2
2023-05-14T06:08:17.167Z,22
2023-05-14T06:10:17.161Z,22
2023-05-14T06:12:17.257Z,21.9
2023-05-14T06:14:18.266Z,21.9
2023-05-14T06:16:17.373Z,22
2023-05-14T06:18:17.156Z,21.9
2023-05-14T06:20:17.119Z,22
2023-05-14T06:22:17.152Z,21.9
2023-05-14T06:24:17.277Z,22
2023-05-14T06:26:18.186Z,22
2023-05-14T06:28:17.148Z,21.9
2023-05-14T06:30:21.892Z,21.9
2023-05-14T06:32:17.415Z,21.8
2023-05-14T06:34:17.159Z,21.9
2023-05-14T06:36:21.511Z,21.9
2023-05-14T06:38:17.209Z,21.9
2023-05-14T06:40:17.175Z,21.9
2023-05-14T06:42:17.167Z,21.9
2023-05-14T06:44:21.622Z,21.9
2023-05-14T06:46:17.284Z,22
2023-05-14T06:48:17.275Z,21.9
2023-05-14T06:50:17.124Z,21.9
2023-05-14T06:52:17.136Z,21.8
2023-05-14T06:54:17.089Z,21.8
2023-05-14T06:56:17.109Z,21.9
2023-05-14T06:58:17.077Z,21.9
2023-05-14T07:00:17.110Z,21.8
2023-05-14T07:02:17.097Z,21.8
2023-05-14T07:04:17.226Z,21.7
2023-05-14T07:06:17.058Z,21.8
2023-05-14T07:08:17.167Z,21.8
2023-05-14T07:10:17.063Z,21.8
2023-05-14T07:12:17.065Z,21.8
2023-05-14T07:14:17.050Z,21.9
2023-05-14T07:16:17.058Z,21.9
2023-05-14T07:18:17.173Z,21.8
2023-05-14T07:20:17.146Z,21.8
2023-05-14T07:22:17.254Z,21.8
2023-05-14T07:24:17.041Z,21.8
2023-05-14T07:26:17.051Z,21.9
2023-05-14T07:28:17.052Z,21.8
2023-05-14T07:30:17.055Z,21.8
2023-05-14T07:32:17.068Z,21.8
2023-05-14T07:34:17.070Z,21.7
2023-05-14T07:36:17.050Z,21.8
2023-05-14T07:38:17.352Z,21.8
2023-05-14T07:40:17.238Z,21.7
2023-05-14T07:42:28.231Z,21.6
2023-05-14T07:44:17.063Z,21.6
2023-05-14T07:46:17.078Z,21.7
2023-05-14T07:48:17.227Z,21.5
2023-05-14T07:50:17.138Z,21.5
2023-05-14T07:52:17.246Z,21.5
2023-05-14T07:54:17.045Z,21.5
2023-05-14T07:56:17.288Z,21.5
2023-05-14T07:58:17.030Z,21.5
2023-05-14T08:00:16.999Z,21.5
2023-05-14T08:02:17.321Z,21.4
2023-05-14T08:04:17.229Z,21.4
2023-05-14T08:06:17.029Z,21.4
2023-05-14T08:08:17.004Z,21.4
2023-05-14T08:10:17.053Z,21.4
2023-05-14T08:12:16.999Z,21.4
2023-05-14T08:14:16.988Z,21.4
2023-05-14T08:16:17.127Z,21.5
2023-05-14T08:18:17.130Z,21.4
2023-05-14T08:20:17.059Z,21.3
2023-05-14T08:22:16.997Z,21.3
2023-05-14T08:24:16.998Z,21.3
2023-05-14T08:26:17.021Z,21.4
2023-05-14T08:28:17.054Z,21.3
2023-05-14T08:30:16.996Z,21.3
2023-05-14T08:32:23.146Z,21.3
2023-05-14T08:34:16.994Z,21.3
2023-05-14T08:36:16.967Z,21.4
2023-05-14T08:38:16.972Z,21.4
2023-05-14T08:40:17.002Z,21.4
2023-05-14T08:42:16.983Z,21.3
2023-05-14T08:44:16.969Z,21.4
2023-05-14T08:46:16.944Z,21.4
2023-05-14T08:48:17.102Z,21.4
2023-05-14T08:50:16.952Z,21.3
2023-05-14T08:52:16.970Z,21.3
2023-05-14T08:54:16.983Z,21.3
2023-05-14T08:56:17.165Z,21.3
2023-05-14T08:58:17.993Z,21.3
2023-05-14T09:00:16.938Z,21.2
2023-05-14T09:02:16.990Z,21.2
2023-05-14T09:04:17.030Z,21.2
2023-05-14T09:06:16.951Z,21.3
2023-05-14T09:08:16.956Z,21.2
2023-05-14T09:10:16.949Z,21.2
2023-05-14T09:12:17.166Z,21.1
2023-05-14T09:14:17.013Z,21.2
2023-05-14T09:16:16.953Z,21.3
2023-05-14T09:18:16.973Z,21.3
2023-05-14T09:20:16.939Z,21.1
2023-05-14T09:22:16.900Z,21.1
2023-05-14T09:24:16.958Z,21.2
2023-05-14T09:26:16.993Z,21.1
2023-05-14T09:28:21.263Z,21.1
2023-05-14T09:30:16.918Z,21
2023-05-14T09:32:18.330Z,21
2023-05-14T09:34:16.904Z,21
2023-05-14T09:36:17.047Z,21.1
2023-05-14T09:38:16.944Z,21
2023-05-14T09:40:17.016Z,21
2023-05-14T09:42:16.877Z,21
2023-05-14T09:44:16.930Z,21
2023-05-14T09:46:17.021Z,21.1
2023-05-14T09:48:16.991Z,21
2023-05-14T09:50:16.906Z,21.1
2023-05-14T09:52:17.006Z,21.1
2023-05-14T09:54:18.455Z,21.1
2023-05-14T09:56:16.996Z,21.2
2023-05-14T09:58:17.056Z,21.1
2023-05-14T10:00:19.498Z,21.2
2023-05-14T10:02:16.953Z,21.1
2023-05-14T10:04:16.871Z,21.2
2023-05-14T10:06:16.948Z,21.3
2023-05-14T10:08:18.464Z,21.3
2023-05-14T10:10:17.125Z,21.2
2023-05-14T10:12:16.902Z,21.2
2023-05-14T10:14:17.024Z,21.3
2023-05-14T10:16:16.950Z,21.3
2023-05-14T10:18:16.984Z,21.2
2023-05-14T10:20:16.869Z,21.2
2023-05-14T10:22:16.917Z,21.2
2023-05-14T10:24:16.855Z,21.2
2023-05-14T10:26:16.893Z,21.3
2023-05-14T10:28:16.921Z,21.3
2023-05-14T10:30:16.828Z,21.3
2023-05-14T10:32:17.124Z,21.3
2023-05-14T10:34:17.021Z,21.3
2023-05-14T10:36:18.016Z,21.4
2023-05-14T10:38:19.205Z,21.4
2023-05-14T10:40:16.894Z,21.4
2023-05-14T10:42:17.038Z,21.3
2023-05-14T10:44:17.033Z,21.4
2023-05-14T10:46:16.967Z,21.5
2023-05-14T10:48:16.920Z,21.5
2023-05-14T10:50:18.102Z,21.6
2023-05-14T10:52:16.989Z,21.6
2023-05-14T10:54:16.880Z,21.7
2023-05-14T10:56:18.205Z,21.7
2023-05-14T10:58:16.784Z,21.7
2023-05-14T11:00:16.827Z,21.7
2023-05-14T11:02:16.983Z,21.8
2023-05-14T11:04:16.970Z,21.9
2023-05-14T11:06:16.993Z,22
2023-05-14T11:08:18.209Z,22.1
2023-05-14T11:10:16.963Z,22.1
2023-05-14T11:12:16.966Z,22.2
2023-05-14T11:14:17.835Z,22.2
2023-05-14T11:16:23.100Z,22.3
2023-05-14T11:18:17.010Z,22.2
2023-05-14T11:20:16.913Z,22.1
2023-05-14T11:22:16.855Z,22
2023-05-14T11:24:16.975Z,22.1
2023-05-14T11:26:17.544Z,22.2
2023-05-14T11:28:18.066Z,22.1
2023-05-14T11:30:16.937Z,22.2
2023-05-14T11:32:16.884Z,22.3
2023-05-14T11:34:16.938Z,22.3
2023-05-14T11:36:19.513Z,22.4
2023-05-14T11:38:17.896Z,22.3
2023-05-14T11:40:17.906Z,22.3
2023-05-14T11:42:18.368Z,22.4
2023-05-14T11:44:16.808Z,22.4
2023-05-14T11:46:16.915Z,22.6
2023-05-14T11:48:16.799Z,22.6
2023-05-14T11:50:18.260Z,22.6
2023-05-14T11:52:16.865Z,22.6
2023-05-14T11:54:16.911Z,22.6
2023-05-14T11:56:17.020Z,22.7
2023-05-14T11:58:16.860Z,22.5
2023-05-14T12:00:16.949Z,22.6
2023-05-14T12:02:16.908Z,22.5
2023-05-14T12:04:16.880Z,22.5
2023-05-14T12:06:16.785Z,22.5
2023-05-14T12:08:16.828Z,22.4
2023-05-14T12:10:16.893Z,22.5
2023-05-14T12:12:17.011Z,22.6
2023-05-14T12:14:16.985Z,22.6
2023-05-14T12:16:16.995Z,22.8
2023-05-14T12:18:23.763Z,22.6
2023-05-14T12:20:16.738Z,22.8
2023-05-14T12:22:16.793Z,22.6
2023-05-14T12:24:16.742Z,22.6
2023-05-14T12:26:16.746Z,22.7
2023-05-14T12:28:16.862Z,23
2023-05-14T12:30:21.596Z,23.4
2023-05-14T12:32:16.992Z,23.7
2023-05-14T12:34:16.727Z,24.2
2023-05-14T12:36:21.564Z,24.5
2023-05-14T12:38:16.898Z,24.5
2023-05-14T12:40:16.786Z,24.7
2023-05-14T12:42:17.841Z,25.1
2023-05-14T12:44:16.976Z,25.5
2023-05-14T12:46:19.303Z,26
2023-05-14T12:48:16.790Z,25.9
2023-05-14T12:50:16.959Z,25.7
2023-05-14T12:52:25.892Z,25.8
2023-05-14T12:54:16.719Z,25.8
2023-05-14T12:56:16.692Z,26.1
2023-05-14T12:58:16.691Z,26
2023-05-14T13:00:16.821Z,26.1
2023-05-14T13:02:17.400Z,25.9
2023-05-14T13:04:16.931Z,25.5
2023-05-14T13:06:16.689Z,25.6
2023-05-14T13:08:18.054Z,25.6
2023-05-14T13:10:16.820Z,25.8
2023-05-14T13:12:17.202Z,26.1
2023-05-14T13:14:17.832Z,26.4
2023-05-14T13:16:17.235Z,26.2
2023-05-14T13:18:16.866Z,26.1
2023-05-14T13:20:24.661Z,26.2
2023-05-14T13:22:16.768Z,25.8
2023-05-14T13:24:17.042Z,25.6
2023-05-14T13:26:16.717Z,25.8
2023-05-14T13:28:16.782Z,25.8
2023-05-14T13:30:16.770Z,25.9
2023-05-14T13:32:16.764Z,25.7
2023-05-14T13:34:17.778Z,25.6
2023-05-14T13:36:16.927Z,25.7
2023-05-14T13:38:16.818Z,25.5
2023-05-14T13:40:28.243Z,25.5
2023-05-14T13:42:27.039Z,25.6
2023-05-14T13:44:16.766Z,25.6
2023-05-14T13:46:20.106Z,25.8
2023-05-14T13:48:16.835Z,25.8
2023-05-14T13:50:16.855Z,25.7
2023-05-14T13:52:16.700Z,25.8
2023-05-14T13:54:16.741Z,25.6
2023-05-14T13:56:16.800Z,25.7
2023-05-14T13:58:18.169Z,25.8
2023-05-14T14:00:17.867Z,26.1
2023-05-14T14:02:19.301Z,25.9
2023-05-14T14:04:16.801Z,26.1
2023-05-14T14:06:16.817Z,26
2023-05-14T14:08:23.196Z,26.1
2023-05-14T14:10:16.799Z,26.1
2023-05-14T14:12:16.698Z,26.2
2023-05-14T14:14:16.689Z,26.2
2023-05-14T14:16:16.765Z,26.6
2023-05-14T14:18:16.824Z,26.5
2023-05-14T14:20:17.787Z,26.7
2023-05-14T14:22:19.217Z,26.6
2023-05-14T14:24:17.852Z,26.6
2023-05-14T14:26:16.886Z,26.8
2023-05-14T14:28:16.734Z,26.7
2023-05-14T14:30:16.682Z,26.8
2023-05-14T14:32:19.471Z,26.9
2023-05-14T14:34:16.685Z,26.7
2023-05-14T14:36:18.024Z,26.7
2023-05-14T14:38:17.026Z,26.6
2023-05-14T14:40:18.150Z,26.6
2023-05-14T14:42:16.728Z,26.5
2023-05-14T14:44:17.781Z,26.6
2023-05-14T14:46:16.657Z,26.8
2023-05-14T14:48:16.638Z,26.8
2023-05-14T14:50:16.641Z,26.8
2023-05-14T14:52:19.656Z,26.7
2023-05-14T14:54:16.679Z,26.6
2023-05-14T14:56:17.992Z,26.8
2023-05-14T14:58:16.556Z,26.9
2023-05-14T15:00:34.390Z,26.8
2023-05-14T15:02:16.804Z,26.7
2023-05-14T15:04:16.662Z,26.6
2023-05-14T15:06:16.578Z,26.9
2023-05-14T15:08:05.016Z,26.9
2023-05-14T15:10:16.573Z,27
2023-05-14T15:12:16.702Z,26.8
2023-05-14T15:14:16.798Z,27
2023-05-14T15:16:16.626Z,26.9
2023-05-14T15:18:16.740Z,26.9
2023-05-14T15:20:18.196Z,27
2023-05-14T15:22:16.629Z,27.3
2023-05-14T15:24:16.715Z,27.4
2023-05-14T15:26:17.745Z,27.1
2023-05-14T15:28:02.317Z,27.1
2023-05-14T15:28:16.692Z,27
2023-05-14T15:30:16.620Z,27.1
2023-05-14T15:32:16.713Z,27
2023-05-14T15:34:16.558Z,26.9
2023-05-14T15:36:16.579Z,26.7
2023-05-14T15:38:16.602Z,26.7
2023-05-14T15:40:16.623Z,26.8
2023-05-14T15:42:16.663Z,26.8
2023-05-14T15:44:16.722Z,27
2023-05-14T15:46:16.541Z,27
2023-05-14T15:48:16.814Z,26.9
2023-05-14T15:50:16.578Z,26.9
2023-05-14T15:52:16.734Z,27
2023-05-14T15:54:16.528Z,27.1
2023-05-14T15:56:16.582Z,27.2
2023-05-14T15:58:16.545Z,27
2023-05-14T16:00:16.548Z,27.2
2023-05-14T16:02:16.592Z,27.3
2023-05-14T16:04:16.529Z,27.2
2023-05-14T16:06:16.726Z,27.2
2023-05-14T16:08:17.552Z,27.2
2023-05-14T16:10:19.165Z,27.2
2023-05-14T16:12:17.600Z,27.4
2023-05-14T16:14:17.843Z,27.3
2023-05-14T16:16:16.563Z,27.3
2023-05-14T16:18:16.529Z,27.4
2023-05-14T16:20:17.979Z,27.4
2023-05-14T16:22:16.557Z,27.2
2023-05-14T16:24:16.603Z,27.1
2023-05-14T16:26:17.960Z,27.1
2023-05-14T16:28:16.750Z,27.3
2023-05-14T16:30:17.332Z,27.2
2023-05-14T16:32:16.773Z,27.5
2023-05-14T16:34:16.667Z,27.4
2023-05-14T16:36:16.725Z,27.7
2023-05-14T16:38:16.651Z,27.5
2023-05-14T16:40:16.539Z,27.4
2023-05-14T16:42:16.568Z,27.3
2023-05-14T16:44:16.458Z,27.3
2023-05-14T16:46:21.124Z,27.4
2023-05-14T16:48:16.651Z,27.5
2023-05-14T16:50:16.502Z,27.6
2023-05-14T16:52:16.652Z,27.6
2023-05-14T16:54:16.400Z,27.6
2023-05-14T16:56:16.455Z,27.7
2023-05-14T16:58:17.744Z,27.5
2023-05-14T17:00:16.549Z,27.4
2023-05-14T17:02:16.596Z,27.5
2023-05-14T17:04:16.694Z,27.5
2023-05-14T17:06:16.674Z,27.5
2023-05-14T17:08:16.474Z,27.6
2023-05-14T17:10:17.801Z,27.7
2023-05-14T17:12:16.473Z,27.6
2023-05-14T17:14:16.590Z,27.6
2023-05-14T17:16:16.588Z,27.4
2023-05-14T17:18:16.582Z,27.2
2023-05-14T17:20:17.009Z,27.4
2023-05-14T17:22:16.488Z,27.3
2023-05-14T17:24:16.574Z,27.6
2023-05-14T17:26:16.418Z,27.6
2023-05-14T17:28:17.613Z,27.4
2023-05-14T17:30:16.417Z,27.5
2023-05-14T17:32:18.983Z,27.3
2023-05-14T17:34:16.744Z,27.3
2023-05-14T17:36:17.811Z,27.4
2023-05-14T17:38:17.568Z,27.6
2023-05-14T17:40:16.754Z,27.3
2023-05-14T17:42:16.514Z,27.7
2023-05-14T17:44:16.509Z,27.7
2023-05-14T17:46:19.047Z,27.5
2023-05-14T17:48:16.383Z,27.4
2023-05-14T17:50:16.466Z,27.4
2023-05-14T17:52:16.444Z,27.6
2023-05-14T17:54:16.449Z,27.9
2023-05-14T17:56:19.052Z,27.8
2023-05-14T17:58:16.469Z,27.7
2023-05-14T18:00:16.367Z,27.7
2023-05-14T18:02:16.536Z,27.8
2023-05-14T18:04:17.710Z,27.9
2023-05-14T18:06:16.504Z,28.1
2023-05-14T18:08:17.469Z,27.9
2023-05-14T18:10:26.873Z,27.5
2023-05-14T18:12:16.711Z,27.6
2023-05-14T18:14:16.386Z,27.6
2023-05-14T18:16:16.389Z,27.5
2023-05-14T18:18:16.674Z,27.7
2023-05-14T18:20:16.445Z,27.6
2023-05-14T18:22:16.652Z,27.7
2023-05-14T18:24:16.573Z,27.7
2023-05-14T18:26:17.501Z,27.5
2023-05-14T18:28:16.412Z,27.9
2023-05-14T18:30:22.368Z,27.9
2023-05-14T18:32:16.352Z,27.8
2023-05-14T18:34:16.378Z,27.7
2023-05-14T18:36:16.420Z,27.7
2023-05-14T18:38:16.419Z,27.7
2023-05-14T18:40:18.572Z,27.5
2023-05-14T18:42:16.541Z,27.2
2023-05-14T18:44:16.306Z,27.4
2023-05-14T18:46:16.616Z,27.3
2023-05-14T18:48:17.975Z,27.4
2023-05-14T18:50:16.409Z,27.2
2023-05-14T18:52:16.389Z,27.2
2023-05-14T18:54:16.353Z,27.2
2023-05-14T18:56:17.680Z,27.3
2023-05-14T18:57:15.477Z,27.3
2023-05-14T18:58:16.408Z,27.4
2023-05-14T19:00:18.367Z,27.4
2023-05-14T19:02:18.673Z,27.4
2023-05-14T19:04:17.927Z,27.6
2023-05-14T19:06:20.695Z,27.6
2023-05-14T19:08:16.396Z,27.8
2023-05-14T19:10:17.502Z,27.8
2023-05-14T19:30:16.959Z,27.8
2023-05-14T19:30:43.603Z,27.8
2023-05-14T19:32:43.531Z,27.6
2023-05-14T19:34:43.644Z,27.6
2023-05-14T19:36:43.838Z,27.7
2023-05-14T19:38:43.497Z,27.6
2023-05-14T19:40:45.170Z,27.4
2023-05-14T19:42:43.609Z,27.5
2023-05-14T19:44:43.458Z,27.5
2023-05-14T19:46:43.467Z,27.6
2023-05-14T19:48:47.670Z,27.7
2023-05-14T19:50:43.389Z,27.6
2023-05-14T19:52:43.466Z,27.7
2023-05-14T19:54:43.400Z,27.6
2023-05-14T19:56:43.607Z,27.9
2023-05-14T19:58:43.438Z,27.9
2023-05-14T20:00:44.712Z,27.8
2023-05-14T20:02:44.641Z,27.7
2023-05-14T20:14:55.186Z,27.8
2023-05-14T20:16:10.997Z,27.9
2023-05-14T20:18:11.355Z,28
2023-05-14T20:20:11.390Z,27.8
2023-05-14T20:22:12.668Z,27.8
2023-05-14T20:24:09.803Z,27.7
2023-05-14T20:26:09.840Z,27.7
2023-05-14T20:28:09.637Z,27.7
2023-05-14T20:30:09.742Z,27.8
2023-05-14T20:32:10.247Z,27.7
2023-05-14T20:34:09.671Z,27.6
2023-05-14T20:36:09.998Z,27.7
2023-05-14T20:38:09.692Z,27.9
2023-05-14T20:40:09.884Z,27.8
2023-05-14T20:42:10.751Z,27.9
2023-05-14T20:44:09.958Z,27.8
2023-05-14T20:46:10.745Z,27.7
2023-05-14T20:48:09.721Z,27.8
2023-05-14T20:50:20.330Z,27.8
2023-05-14T20:50:52.383Z,27.8
2023-05-14T20:52:09.630Z,27.9
2023-05-14T20:54:09.715Z,27.9
2023-05-14T20:56:09.640Z,27.9
2023-05-14T20:58:09.843Z,27.8
2023-05-14T21:00:10.652Z,27.8
2023-05-14T21:02:10.989Z,27.8
2023-05-14T21:04:09.871Z,27.6
2023-05-14T21:06:09.695Z,27.5
2023-05-14T21:08:09.778Z,27.7
2023-05-14T21:10:09.780Z,27.6
2023-05-14T21:12:09.811Z,27.6
2023-05-14T21:14:09.784Z,27.6
2023-05-14T21:16:09.669Z,27.5
2023-05-14T21:18:09.705Z,27.7
2023-05-14T21:20:09.680Z,27.7
2023-05-14T21:22:10.848Z,27.8
2023-05-14T21:24:09.714Z,27.7
2023-05-14T21:26:09.740Z,27.7
2023-05-14T21:28:09.707Z,28
2023-05-14T21:30:09.634Z,28
2023-05-14T21:32:10.706Z,27.9
2023-05-14T21:34:09.665Z,27.9
2023-05-14T21:36:09.687Z,27.9
2023-05-14T21:38:09.679Z,28.1
2023-05-14T21:40:09.657Z,28.1
2023-05-14T21:42:09.682Z,28.1
2023-05-14T21:44:09.633Z,28.1
2023-05-14T21:46:09.654Z,28.1
2023-05-14T21:48:09.590Z,28.2
2023-05-14T21:50:09.619Z,28.1
2023-05-14T21:52:10.952Z,28
2023-05-14T21:54:12.992Z,28
2023-05-14T21:56:09.723Z,28
2023-05-14T21:58:09.583Z,28.1
2023-05-14T22:00:11.383Z,28
2023-05-14T22:02:10.280Z,28
2023-05-14T22:04:10.742Z,28
2023-05-14T22:06:09.655Z,28
2023-05-14T22:08:09.752Z,28.1
2023-05-14T22:10:09.550Z,28
2023-05-14T22:12:09.628Z,27.9
2023-05-14T22:14:10.768Z,28
2023-05-14T22:16:13.092Z,28.3
2023-05-14T22:18:09.614Z,28.5
2023-05-14T22:20:09.883Z,28.4
2023-05-14T22:22:11.942Z,28.2
2023-05-14T22:24:11.117Z,28.1
2023-05-14T22:26:12.100Z,27.9
2023-05-14T22:28:09.579Z,27.9
2023-05-14T22:30:10.771Z,27.7
2023-05-14T22:32:09.542Z,27.6
2023-05-14T22:34:11.028Z,27.4
2023-05-14T22:36:09.690Z,27.2
2023-05-14T22:38:15.057Z,27.3
2023-05-14T22:40:09.736Z,27.2
2023-05-14T22:42:09.618Z,27.1
2023-05-14T22:44:10.356Z,26.9
2023-05-14T22:46:09.624Z,26.7
2023-05-14T22:48:09.662Z,26.5
2023-05-14T22:50:09.584Z,26.3
2023-05-14T22:52:09.741Z,26.1
2023-05-14T22:54:09.793Z,25.9
2023-05-14T22:56:09.900Z,25.8
2023-05-14T22:58:09.648Z,25.7
2023-05-14T23:00:09.829Z,25.6
2023-05-14T23:02:09.733Z,25.4
2023-05-14T23:04:09.784Z,25.3
2023-05-14T23:06:09.661Z,25.2
2023-05-14T23:08:09.582Z,25.1
2023-05-14T23:10:10.955Z,25.1
2023-05-14T23:12:09.606Z,25
2023-05-14T23:14:09.589Z,24.8
2023-05-14T23:16:09.542Z,24.8
2023-05-14T23:18:09.706Z,24.7
2023-05-14T23:20:09.592Z,24.6
2023-05-14T23:22:09.586Z,24.5
2023-05-14T23:24:12.530Z,24.4
2023-05-14T23:26:10.598Z,24.2
2023-05-14T23:28:10.765Z,24.1
2023-05-14T23:30:11.376Z,24
2023-05-14T23:32:09.745Z,23.8
2023-05-14T23:34:09.591Z,23.7
2023-05-14T23:36:12.170Z,23.6
2023-05-14T23:38:10.719Z,23.5
2023-05-14T23:40:10.963Z,23.4
2023-05-14T23:42:12.027Z,23.2
2023-05-14T23:44:09.534Z,23.1
2023-05-14T23:46:09.684Z,23
2023-05-14T23:48:13.976Z,22.9
2023-05-14T23:50:09.690Z,22.8
2023-05-14T23:52:09.729Z,22.7
2023-05-14T23:54:09.707Z,22.6
2023-05-14T23:56:09.722Z,22.5
2023-05-14T23:58:15.198Z,22.4
